createdAt,value
2023-02-06T00:00:53.639Z,99264.91
2023-02-06T00:03:20.886Z,99261.91
2023-02-06T00:05:58.978Z,99256.72
2023-02-06T00:08:27.350Z,99246.88
2023-02-06T00:10:55.231Z,99248.34
2023-02-06T00:13:23.034Z,99249.84
2023-02-06T00:15:50.238Z,99243.03
2023-02-06T00:18:17.445Z,99242.19
2023-02-06T00:20:44.510Z,99246.03
2023-02-06T00:23:11.583Z,99248.66
2023-02-06T00:25:38.766Z,99238.41
2023-02-06T00:28:05.932Z,99240.72
2023-02-06T00:30:33.133Z,99233.63
2023-02-06T00:33:00.560Z,99236.59
2023-02-06T00:35:27.646Z,99231.81
2023-02-06T00:37:54.720Z,99230.53
2023-02-06T00:40:21.811Z,99230.53
2023-02-06T00:42:48.809Z,99227.00
2023-02-06T00:45:15.920Z,99224.38
2023-02-06T00:47:43.029Z,99228.19
2023-02-06T00:50:10.275Z,99224.19
2023-02-06T00:52:37.389Z,99218.25
2023-02-06T00:55:04.728Z,99217.19
2023-02-06T00:57:31.788Z,99214.66
2023-02-06T00:59:58.871Z,99215.06
2023-02-06T01:02:25.940Z,99221.84
2023-02-06T01:04:52.965Z,99207.75
2023-02-06T01:07:20.109Z,99209.66
2023-02-06T01:09:47.160Z,99208.81
2023-02-06T01:12:14.194Z,99220.34
2023-02-06T01:14:41.415Z,99214.94
2023-02-06T01:17:08.687Z,99204.78
2023-02-06T01:19:36.845Z,99207.09
2023-02-06T01:22:04.514Z,99208.78
2023-02-06T01:24:31.641Z,99205.91
2023-02-06T01:26:58.661Z,99205.66
2023-02-06T01:29:25.731Z,99204.78
2023-02-06T01:31:52.810Z,99197.28
2023-02-06T01:34:19.782Z,99198.28
2023-02-06T01:36:46.833Z,99200.03
2023-02-06T01:39:13.945Z,99204.47
2023-02-06T01:41:40.947Z,99200.69
2023-02-06T01:44:08.048Z,99189.03
2023-02-06T01:46:35.096Z,99185.31
2023-02-06T01:49:02.544Z,99184.13
2023-02-06T01:51:30.775Z,99178.84
2023-02-06T01:54:04.291Z,99175.31
2023-02-06T01:56:38.929Z,99175.56
2023-02-06T01:59:06.205Z,99185.78
2023-02-06T02:01:33.998Z,99180.84
2023-02-06T02:04:11.483Z,99181.78
2023-02-06T02:06:40.658Z,99188.38
2023-02-06T02:09:08.617Z,99197.19
2023-02-06T02:11:38.658Z,99194.63
2023-02-06T02:14:09.057Z,99192.72
2023-02-06T02:16:41.010Z,99194.94
2023-02-06T02:19:31.342Z,99197.91
2023-02-06T02:22:35.863Z,99196.31
2023-02-06T02:25:15.127Z,99191.97
2023-02-06T02:28:11.302Z,99190.19
2023-02-06T02:31:03.003Z,99189.13
2023-02-06T02:33:50.230Z,99186.28
2023-02-06T02:36:22.846Z,99184.81
2023-02-06T02:39:09.354Z,99190.19
2023-02-06T02:41:45.821Z,99180.56
2023-02-06T02:44:24.587Z,99180.03
2023-02-06T02:46:53.338Z,99180.16
2023-02-06T02:49:25.989Z,99186.41
2023-02-06T02:51:53.967Z,99179.50
2023-02-06T02:54:21.074Z,99182.47
2023-02-06T02:56:48.183Z,99176.31
2023-02-06T02:59:28.270Z,99174.84
2023-02-06T03:02:00.305Z,99169.56
2023-02-06T03:04:45.138Z,99174.84
2023-02-06T03:07:53.683Z,99174.84
2023-02-06T03:10:23.636Z,99182.03
2023-02-06T03:13:06.377Z,99171.03
2023-02-06T03:15:56.379Z,99176.31
2023-02-06T03:18:31.462Z,99167.84
2023-02-06T03:21:00.988Z,99151.22
2023-02-06T03:23:33.003Z,99163.31
2023-02-06T03:26:04.178Z,99151.97
2023-02-06T03:28:47.869Z,99150.50
2023-02-06T03:31:21.290Z,99144.56
2023-02-06T03:33:52.614Z,99144.78
2023-02-06T03:36:20.393Z,99135.38
2023-02-06T03:38:50.276Z,99127.09
2023-02-06T03:41:21.115Z,99122.66
2023-02-06T03:43:50.544Z,99118.19
2023-02-06T03:46:19.072Z,99117.44
2023-02-06T03:48:54.380Z,99116.72
2023-02-06T03:51:45.347Z,99115.88
2023-02-06T03:54:17.297Z,99102.09
2023-02-06T03:56:53.142Z,99111.09
2023-02-06T03:59:20.518Z,99108.00
2023-02-06T04:01:52.189Z,99107.72
2023-02-06T04:04:21.362Z,99104.31
2023-02-06T04:06:48.467Z,99107.72
2023-02-06T04:09:15.564Z,99094.06
2023-02-06T04:11:42.552Z,99096.28
2023-02-06T04:14:09.742Z,99094.56
2023-02-06T04:16:36.819Z,99095.53
2023-02-06T04:19:03.856Z,99095.38
2023-02-06T04:21:30.996Z,99098.66
2023-02-06T04:23:58.036Z,99096.22
2023-02-06T04:26:25.105Z,99086.25
2023-02-06T04:28:52.374Z,99090.69
2023-02-06T04:31:19.417Z,99086.16
2023-02-06T04:33:46.465Z,99083.34
2023-02-06T04:36:14.124Z,99086.88
2023-02-06T04:38:41.177Z,99091.84
2023-02-06T04:41:08.363Z,99079.97
2023-02-06T04:43:35.773Z,99082.06
2023-02-06T04:46:02.856Z,99086.97
2023-02-06T04:48:29.894Z,99084.84
2023-02-06T04:50:57.082Z,99086.16
2023-02-06T04:53:24.201Z,99087.44
2023-02-06T04:55:51.299Z,99084.16
2023-02-06T04:58:18.442Z,99087.34
2023-02-06T05:00:45.543Z,99084.38
2023-02-06T05:03:12.683Z,99092.88
2023-02-06T05:05:39.734Z,99088.31
2023-02-06T05:08:06.770Z,99095.81
2023-02-06T05:10:33.844Z,99092.63
2023-02-06T05:13:00.863Z,99090.91
2023-02-06T05:15:27.941Z,99094.75
2023-02-06T05:17:54.949Z,99094.75
2023-02-06T05:20:21.954Z,99093.69
2023-02-06T05:22:49.087Z,99086.47
2023-02-06T05:25:18.039Z,99085.13
2023-02-06T05:27:45.119Z,99077.28
2023-02-06T05:30:12.723Z,99075.50
2023-02-06T05:32:39.900Z,99079.31
2023-02-06T05:35:07.867Z,99083.44
2023-02-06T05:37:35.014Z,99076.25
2023-02-06T05:40:02.035Z,99074.63
2023-02-06T05:42:29.085Z,99076.75
2023-02-06T05:44:56.537Z,99077.38
2023-02-06T05:47:23.724Z,99073.56
2023-02-06T05:49:50.786Z,99071.09
2023-02-06T05:52:18.259Z,99074.81
2023-02-06T05:54:45.339Z,99077.78
2023-02-06T05:57:12.656Z,99076.28
2023-02-06T05:59:39.742Z,99079.34
2023-02-06T06:02:07.157Z,99073.31
2023-02-06T06:04:34.235Z,99078.59
2023-02-06T06:07:01.342Z,99072.59
2023-02-06T06:09:28.459Z,99074.81
2023-02-06T06:11:55.519Z,99076.28
2023-02-06T06:14:22.566Z,99072.47
2023-02-06T06:16:49.649Z,99079.25
2023-02-06T06:19:16.690Z,99076.28
2023-02-06T06:21:43.824Z,99085.41
2023-02-06T06:24:10.835Z,99092.59
2023-02-06T06:26:37.917Z,99090.69
2023-02-06T06:29:05.175Z,99099.06
2023-02-06T06:31:32.277Z,99102.16
2023-02-06T06:33:59.441Z,99100.53
2023-02-06T06:36:26.522Z,99105.84
2023-02-06T06:38:53.536Z,99105.00
2023-02-06T06:41:20.593Z,99107.66
2023-02-06T06:43:48.332Z,99103.41
2023-02-06T06:46:16.861Z,99109.31
2023-02-06T06:48:44.019Z,99104.75
2023-02-06T06:51:11.222Z,99106.38
2023-02-06T06:53:40.378Z,99101.06
2023-02-06T06:56:09.112Z,99104.56
2023-02-06T06:58:36.190Z,99112.50
2023-02-06T07:01:03.524Z,99114.84
2023-02-06T07:03:30.658Z,99115.69
2023-02-06T07:05:58.047Z,99120.97
2023-02-06T07:08:25.148Z,99123.97
2023-02-06T07:10:52.253Z,99119.50
2023-02-06T07:13:19.317Z,99121.88
2023-02-06T07:15:46.369Z,99121.13
2023-02-06T07:18:13.373Z,99123.88
2023-02-06T07:20:40.615Z,99129.59
2023-02-06T07:23:07.626Z,99131.94
2023-02-06T07:25:34.936Z,99124.75
2023-02-06T07:28:02.186Z,99128.84
2023-02-06T07:30:29.301Z,99134.16
2023-02-06T07:32:56.364Z,99128.13
2023-02-06T07:35:23.439Z,99130.44
2023-02-06T07:37:53.940Z,99140.31
2023-02-06T07:40:21.304Z,99136.47
2023-02-06T07:42:49.054Z,99139.13
2023-02-06T07:45:17.848Z,99148.69
2023-02-06T07:47:47.397Z,99142.63
2023-02-06T07:50:14.424Z,99144.13
2023-02-06T07:52:41.452Z,99144.88
2023-02-06T07:55:10.533Z,99147.06
2023-02-06T07:57:37.685Z,99148.56
2023-02-06T08:00:06.071Z,99156.09
2023-02-06T08:02:33.212Z,99157.13
2023-02-06T08:05:00.299Z,99158.97
2023-02-06T08:07:27.406Z,99162.75
2023-02-06T08:09:54.982Z,99166.44
2023-02-06T08:12:22.710Z,99159.56
2023-02-06T08:14:49.744Z,99150.78
2023-02-06T08:17:19.454Z,99154.88
2023-02-06T08:19:46.866Z,99154.59
2023-02-06T08:22:13.848Z,99168.44
2023-02-06T08:24:40.813Z,99167.31
2023-02-06T08:27:07.978Z,99167.59
2023-02-06T08:29:42.662Z,99171.75
2023-02-06T08:32:10.588Z,99166.78
2023-02-06T08:34:39.822Z,99167.06
2023-02-06T08:37:06.911Z,99168.53
2023-02-06T08:39:34.010Z,99171.19
2023-02-06T08:42:01.026Z,99174.16
2023-02-06T08:44:28.335Z,99171.81
2023-02-06T08:47:08.935Z,99170.97
2023-02-06T08:49:36.896Z,99185.41
2023-02-06T08:52:04.261Z,99178.06
2023-02-06T08:54:33.207Z,99177.22
2023-02-06T08:57:02.845Z,99178.25
2023-02-06T08:59:31.392Z,99179.63
2023-02-06T09:01:58.460Z,99181.09
2023-02-06T09:04:25.798Z,99178.03
2023-02-06T09:06:53.061Z,99185.56
2023-02-06T09:09:20.160Z,99176.75
2023-02-06T09:11:47.832Z,99177.06
2023-02-06T09:14:17.306Z,99178.50
2023-02-06T09:16:44.770Z,99180.63
2023-02-06T09:19:12.208Z,99179.78
2023-02-06T09:21:39.683Z,99183.03
2023-02-06T09:24:08.666Z,99183.25
2023-02-06T09:26:50.272Z,99187.56
2023-02-06T09:29:24.672Z,99198.56
2023-02-06T09:31:51.811Z,99192.69
2023-02-06T09:34:18.894Z,99195.09
2023-02-06T09:36:46.181Z,99193.66
2023-02-06T09:39:14.311Z,99191.94
2023-02-06T09:41:45.827Z,99200.50
2023-02-06T09:44:22.269Z,99200.38
2023-02-06T09:46:58.076Z,99199.06
2023-02-06T09:49:45.498Z,99201.47
2023-02-06T09:52:18.757Z,99202.06
2023-02-06T09:55:18.213Z,99201.78
2023-02-06T09:58:09.917Z,99194.75
2023-02-06T10:00:49.909Z,99191.94
2023-02-06T10:03:31.445Z,99197.44
2023-02-06T10:06:19.434Z,99194.22
2023-02-06T10:08:57.761Z,99194.81
2023-02-06T10:11:42.492Z,99190.41
2023-02-06T10:14:36.913Z,99192.19
2023-02-06T10:17:13.068Z,99194.41
2023-02-06T10:19:48.458Z,99194.28
2023-02-06T10:22:27.264Z,99201.66
2023-02-06T10:25:17.031Z,99198.56
2023-02-06T10:27:45.999Z,99201.53
2023-02-06T10:30:21.084Z,99197.56
2023-02-06T10:33:07.912Z,99211.03
2023-02-06T10:36:14.407Z,99203.34
2023-02-06T10:39:13.921Z,99214.72
2023-02-06T10:42:00.802Z,99210.28
2023-02-06T10:44:51.757Z,99219.41
2023-02-06T10:47:57.903Z,99218.69
2023-02-06T10:50:30.318Z,99215.00
2023-02-06T10:53:02.049Z,99229.31
2023-02-06T10:55:55.743Z,99227.22
2023-02-06T10:58:29.848Z,99230.03
2023-02-06T11:00:59.541Z,99226.97
2023-02-06T11:03:32.368Z,99234.47
2023-02-06T11:06:01.935Z,99239.53
2023-02-06T11:08:31.365Z,99240.13
2023-02-06T11:10:58.756Z,99233.06
2023-02-06T11:13:35.616Z,99230.84
2023-02-06T11:16:17.183Z,99236.31
2023-02-06T11:18:46.657Z,99242.38
2023-02-06T11:21:16.155Z,99241.06
2023-02-06T11:23:43.358Z,99241.31
2023-02-06T11:26:15.391Z,99234.53
2023-02-06T11:28:59.144Z,99233.34
2023-02-06T11:31:50.502Z,99232.34
2023-02-06T11:34:42.662Z,99230.84
2023-02-06T11:37:40.962Z,99228.34
2023-02-06T11:40:20.235Z,99231.31
2023-02-06T11:42:50.102Z,99220.09
2023-02-06T11:45:23.269Z,99232.78
2023-02-06T11:47:50.341Z,99219.22
2023-02-06T11:50:27.730Z,99210.59
2023-02-06T11:53:18.342Z,99212.97
2023-02-06T11:55:57.559Z,99219.78
2023-02-06T11:58:27.759Z,99222.44
2023-02-06T12:01:00.832Z,99213.28
2023-02-06T12:03:39.238Z,99205.44
2023-02-06T12:06:11.275Z,99206.75
2023-02-06T12:08:54.838Z,99199.06
2023-02-06T12:11:31.328Z,99197.59
2023-02-06T12:14:19.181Z,99204.97
2023-02-06T12:16:47.372Z,99204.69
2023-02-06T12:19:23.448Z,99209.13
2023-02-06T12:22:12.709Z,99210.00
2023-02-06T12:24:46.712Z,99204.22
2023-02-06T12:27:29.615Z,99202.88
2023-02-06T12:30:18.522Z,99206.28
2023-02-06T12:32:49.330Z,99193.88
2023-02-06T12:35:24.648Z,99190.88
2023-02-06T12:38:08.306Z,99186.72
2023-02-06T12:40:48.354Z,99177.84
2023-02-06T12:43:17.746Z,99178.84
2023-02-06T12:46:09.206Z,99174.84
2023-02-06T12:49:16.905Z,99159.59
2023-02-06T12:52:03.012Z,99156.94
2023-02-06T12:54:40.725Z,99149.38
2023-02-06T12:57:16.053Z,99141.56
2023-02-06T13:00:01.613Z,99135.72
2023-02-06T13:03:03.149Z,99133.53
2023-02-06T13:05:40.422Z,99126.31
2023-02-06T13:08:17.003Z,99118.03
2023-02-06T13:10:44.560Z,99116.63
2023-02-06T13:13:31.733Z,99110.16
2023-02-06T13:16:00.690Z,99106.16
2023-02-06T13:18:54.143Z,99104.91
2023-02-06T13:21:28.991Z,99107.88
2023-02-06T13:24:01.866Z,99095.00
2023-02-06T13:26:48.979Z,99095.44
2023-02-06T13:29:23.230Z,99095.72
2023-02-06T13:31:50.264Z,99084.91
2023-02-06T13:34:18.941Z,99079.47
2023-02-06T13:36:52.036Z,99077.63
2023-02-06T13:39:33.743Z,99079.69
2023-02-06T13:42:22.845Z,99065.31
2023-02-06T13:44:51.520Z,99061.22
2023-02-06T13:47:31.721Z,99057.19
2023-02-06T13:50:45.550Z,99048.09
2023-02-06T13:53:35.705Z,99036.88
2023-02-06T13:56:21.396Z,99035.03
2023-02-06T13:58:51.907Z,99033.94
2023-02-06T14:01:26.418Z,99028.13
2023-02-06T14:03:55.314Z,99023.56
2023-02-06T14:06:59.922Z,99018.41
2023-02-06T14:09:57.172Z,99010.13
2023-02-06T14:12:44.779Z,99005.47
2023-02-06T14:15:33.601Z,99002.72
2023-02-06T14:18:17.298Z,98996.22
2023-02-06T14:21:19.980Z,98994.56
2023-02-06T14:24:02.221Z,98992.81
2023-02-06T14:26:40.690Z,98990.16
2023-02-06T14:29:30.614Z,98995.38
2023-02-06T14:32:12.791Z,98996.69
2023-02-06T14:34:46.068Z,98987.22
2023-02-06T14:37:25.043Z,98997.41
2023-02-06T14:39:57.410Z,98995.28
2023-02-06T14:42:32.925Z,99000.28
2023-02-06T14:45:08.616Z,98993.47
2023-02-06T14:47:42.695Z,98996.03
2023-02-06T14:50:20.161Z,98992.44
2023-02-06T14:53:07.062Z,98981.88
2023-02-06T14:55:34.516Z,98994.38
2023-02-06T14:58:02.183Z,98989.94
2023-02-06T15:00:30.316Z,98995.78
2023-02-06T15:03:08.854Z,98999.47
2023-02-06T15:05:36.436Z,98996.38
2023-02-06T15:08:05.719Z,98996.38
2023-02-06T15:10:38.013Z,98993.44
2023-02-06T15:13:05.359Z,98986.81
2023-02-06T15:15:34.753Z,98987.16
2023-02-06T15:18:05.130Z,98976.47
2023-02-06T15:20:38.355Z,98984.31
2023-02-06T15:23:18.968Z,98976.47
2023-02-06T15:26:08.877Z,98971.56
2023-02-06T15:28:37.650Z,98972.38
2023-02-06T15:31:05.512Z,98968.94
2023-02-06T15:33:34.708Z,98974.88
2023-02-06T15:36:04.445Z,98980.28
2023-02-06T15:38:33.714Z,98970.09
2023-02-06T15:41:05.016Z,98964.53
2023-02-06T15:43:33.363Z,98973.78
2023-02-06T15:46:03.468Z,98965.06
2023-02-06T15:48:43.656Z,98965.13
2023-02-06T15:51:22.839Z,98958.88
2023-02-06T15:53:51.358Z,98964.75
2023-02-06T15:56:28.999Z,98959.25
2023-02-06T15:59:05.524Z,98962.19
2023-02-06T16:01:37.395Z,98961.91
2023-02-06T16:04:19.991Z,98954.69
2023-02-06T16:06:59.060Z,98956.59
2023-02-06T16:09:26.630Z,98952.47
2023-02-06T16:11:57.179Z,98949.28
2023-02-06T16:14:33.626Z,98951.66
2023-02-06T16:17:06.022Z,98952.75
2023-02-06T16:20:08.624Z,98944.19
2023-02-06T16:22:38.796Z,98954.59
2023-02-06T16:25:21.526Z,98947.00
2023-02-06T16:27:51.449Z,98947.44
2023-02-06T16:30:29.508Z,98941.91
2023-02-06T16:32:58.341Z,98942.31
2023-02-06T16:35:26.108Z,98948.47
2023-02-06T16:37:54.822Z,98959.19
2023-02-06T16:40:22.448Z,98969.31
2023-02-06T16:42:49.968Z,98967.50
2023-02-06T16:45:20.405Z,98973.09
2023-02-06T16:47:48.286Z,98976.72
2023-02-06T16:50:16.234Z,98977.41
2023-02-06T16:52:51.767Z,98979.91
2023-02-06T16:55:24.531Z,98979.78
2023-02-06T16:58:01.630Z,98969.78
2023-02-06T17:00:31.647Z,98965.72
2023-02-06T17:02:59.201Z,98966.78
2023-02-06T17:05:28.684Z,98962.97
2023-02-06T17:07:55.755Z,98979.88
2023-02-06T17:10:25.588Z,98967.25
2023-02-06T17:12:53.214Z,98972.16
2023-02-06T17:15:20.906Z,98975.41
2023-02-06T17:17:47.989Z,98978.81
2023-02-06T17:20:38.488Z,98982.19
2023-02-06T17:23:06.575Z,98986.91
2023-02-06T17:25:33.853Z,98989.56
2023-02-06T17:28:01.820Z,98989.41
2023-02-06T17:30:29.226Z,98986.75
2023-02-06T17:32:56.699Z,98990.47
2023-02-06T17:35:24.388Z,98990.72
2023-02-06T17:37:51.954Z,98980.19
2023-02-06T17:40:28.833Z,98978.84
2023-02-06T17:42:57.282Z,98984.00
2023-02-06T17:45:25.301Z,98982.09
2023-02-06T17:47:52.971Z,98986.84
2023-02-06T17:50:22.844Z,98985.53
2023-02-06T17:52:52.993Z,98993.22
2023-02-06T17:55:20.100Z,98994.28
2023-02-06T17:57:47.157Z,99001.56
2023-02-06T18:00:17.548Z,98996.13
2023-02-06T18:02:44.804Z,99004.53
2023-02-06T18:05:12.150Z,99002.94
2023-02-06T18:07:39.461Z,99004.72
2023-02-06T18:10:07.728Z,99005.03
2023-02-06T18:12:35.158Z,99006.66
2023-02-06T18:15:02.504Z,99009.78
2023-02-06T18:17:29.874Z,99017.13
2023-02-06T18:19:57.117Z,99013.91
2023-02-06T18:22:24.403Z,99022.47
2023-02-06T18:24:51.557Z,99014.81
2023-02-06T18:27:20.649Z,99010.41
2023-02-06T18:29:52.942Z,99013.34
2023-02-06T18:32:20.055Z,99013.63
2023-02-06T18:34:47.583Z,99013.78
2023-02-06T18:37:14.691Z,99011.56
2023-02-06T18:39:41.902Z,99005.06
2023-02-06T18:42:29.078Z,99007.72
2023-02-06T18:44:56.128Z,99014.97
2023-02-06T18:47:23.160Z,99018.78
2023-02-06T18:49:50.330Z,99015.69
2023-02-06T18:52:18.171Z,99014.78
2023-02-06T18:54:45.446Z,99014.03
2023-02-06T18:57:12.447Z,99009.47
2023-02-06T18:59:39.550Z,99017.16
2023-02-06T19:02:08.240Z,99025.72
2023-02-06T19:04:37.014Z,99020.41
2023-02-06T19:07:04.139Z,99019.25
2023-02-06T19:09:31.155Z,99025.16
2023-02-06T19:11:58.220Z,99028.97
2023-02-06T19:14:25.929Z,99035.19
2023-02-06T19:16:54.678Z,99025.41
2023-02-06T19:19:21.873Z,99038.53
2023-02-06T19:21:49.258Z,99033.38
2023-02-06T19:24:18.986Z,99037.81
2023-02-06T19:26:46.236Z,99038.41
2023-02-06T19:29:16.832Z,99051.78
2023-02-06T19:31:45.677Z,99045.13
2023-02-06T19:34:12.998Z,99051.03
2023-02-06T19:36:40.369Z,99052.22
2023-02-06T19:39:09.784Z,99047.78
2023-02-06T19:41:37.191Z,99049.38
2023-02-06T19:44:09.170Z,99063.25
2023-02-06T19:46:36.790Z,99055.84
2023-02-06T19:49:06.543Z,99052.50
2023-02-06T19:51:36.967Z,99055.03
2023-02-06T19:54:05.000Z,99054.91
2023-02-06T19:56:38.732Z,99042.84
2023-02-06T19:59:27.161Z,99053.31
2023-02-06T20:01:56.725Z,99044.31
2023-02-06T20:04:26.707Z,99053.59
2023-02-06T20:06:55.949Z,99047.22
2023-02-06T20:09:24.393Z,99041.66
2023-02-06T20:11:51.688Z,99045.06
2023-02-06T20:14:19.534Z,99040.75
2023-02-06T20:16:47.734Z,99046.81
2023-02-06T20:19:24.646Z,99049.31
2023-02-06T20:21:54.231Z,99054.94
2023-02-06T20:24:23.943Z,99058.16
2023-02-06T20:26:57.409Z,99058.50
2023-02-06T20:29:30.242Z,99058.78
2023-02-06T20:31:58.118Z,99059.94
2023-02-06T20:34:26.973Z,99059.09
2023-02-06T20:36:55.064Z,99057.03
2023-02-06T20:39:22.828Z,99052.28
2023-02-06T20:41:50.605Z,99051.13
2023-02-06T20:44:19.421Z,99056.69
2023-02-06T20:46:46.946Z,99052.25
2023-02-06T20:49:26.114Z,99050.19
2023-02-06T20:51:56.313Z,99048.09
2023-02-06T20:54:24.190Z,99040.72
2023-02-06T20:56:51.772Z,99040.00
2023-02-06T20:59:20.399Z,99046.19
2023-02-06T21:01:47.906Z,99042.06
2023-02-06T21:04:16.826Z,99045.56
2023-02-06T21:06:45.094Z,99046.03
2023-02-06T21:09:12.565Z,99063.69
2023-02-06T21:11:48.177Z,99083.59
2023-02-06T21:14:15.906Z,99098.44
2023-02-06T21:16:44.215Z,99121.66
2023-02-06T21:19:13.611Z,99125.63
2023-02-06T21:21:41.172Z,99120.59
2023-02-06T21:24:09.553Z,99120.75
2023-02-06T21:26:37.670Z,99124.53
2023-02-06T21:29:06.706Z,99113.31
2023-02-06T21:31:38.308Z,99106.81
2023-02-06T21:34:13.262Z,99110.94
2023-02-06T21:36:41.237Z,99107.13
2023-02-06T21:39:09.322Z,99097.41
2023-02-06T21:41:37.420Z,99099.44
2023-02-06T21:44:05.097Z,99098.25
2023-02-06T21:46:34.902Z,99091.47
2023-02-06T21:49:02.368Z,99097.81
2023-02-06T21:51:29.506Z,99095.03
2023-02-06T21:53:57.147Z,99096.84
2023-02-06T21:56:29.206Z,99105.41
2023-02-06T21:58:57.816Z,99100.44
2023-02-06T22:01:28.542Z,99095.31
2023-02-06T22:03:57.355Z,99095.50
2023-02-06T22:06:24.607Z,99100.78
2023-02-06T22:08:52.953Z,99093.28
2023-02-06T22:11:23.669Z,99098.81
2023-02-06T22:13:51.895Z,99107.53
2023-02-06T22:16:23.185Z,99105.78
2023-02-06T22:18:50.893Z,99100.50
2023-02-06T22:21:22.802Z,99104.22
2023-02-06T22:23:52.843Z,99110.88
2023-02-06T22:26:21.643Z,99110.16
2023-02-06T22:28:49.242Z,99105.91
2023-02-06T22:31:22.587Z,99117.84
2023-02-06T22:33:50.635Z,99110.41
2023-02-06T22:36:23.768Z,99108.22
2023-02-06T22:38:56.498Z,99108.78
2023-02-06T22:41:24.115Z,99107.00
2023-02-06T22:43:51.433Z,99116.59
2023-02-06T22:46:27.374Z,99106.84
2023-02-06T22:48:55.490Z,99110.66
2023-02-06T22:51:23.147Z,99118.19
2023-02-06T22:53:50.402Z,99127.63
2023-02-06T22:56:27.104Z,99114.91
2023-02-06T22:58:56.590Z,99123.22
2023-02-06T23:01:27.084Z,99114.63
2023-02-06T23:03:55.380Z,99109.56
2023-02-06T23:06:22.456Z,99111.19
2023-02-06T23:08:49.561Z,99122.22
2023-02-06T23:11:16.913Z,99117.03
2023-02-06T23:13:43.940Z,99114.81
2023-02-06T23:16:11.821Z,99112.00
2023-02-06T23:18:38.916Z,99108.59
2023-02-06T23:21:11.057Z,99105.75
2023-02-06T23:23:39.104Z,99105.03
2023-02-06T23:26:11.339Z,99096.34
2023-02-06T23:28:39.193Z,99093.09
2023-02-06T23:31:06.936Z,99090.56
2023-02-06T23:33:34.184Z,99088.13
2023-02-06T23:36:11.135Z,99085.19
2023-02-06T23:38:38.575Z,99090.03
2023-02-06T23:41:11.335Z,99088.13
2023-02-06T23:43:39.215Z,99079.78
2023-02-06T23:46:09.378Z,99083.59
2023-02-06T23:48:38.596Z,99081.69
2023-02-06T23:51:05.741Z,99075.63
2023-02-06T23:53:32.762Z,99068.44
2023-02-06T23:56:00.026Z,99060.47
2023-02-06T23:58:27.188Z,99051.78
